ELGK1: Caney River

Data processed at Thu May 23 2019 23:50


All information presented herein is the property of the government of the United States of America and may be revised or deleted at any time without prior notice.
Dissemination of this information without the expressed written consent of the Public Affairs Office, Tulsa District U.S. Army Corps of Engineers is strictly prohibited.
These data are gathered electronically and, as presented, have not undergone any form of quality control. These data are not guaranteed to be valid or correct.
Go to home page.
Go to station list.
Go to home page.

Upstream stations:

Downstream station:
Previous Day
Next Day
Current Day
    
SHEF ID:       ELGK1     CANEY R NR ELGIN, KS
STATION TYPE:  
Regulating: Stage =    25.00, Flow =    32961

               PRECIP     STAGE  STAGE(2)  RIV-FLOW  BAT-LOAD
                   in        ft        ft       cfs      volt
              Ccp-Rev   Ccp-Rev   Ccp-Rev   Ccp-Rev   Ccp-Rev
(US/Central)
05/23 00:00      0.18      6.41      ----      5051     12.89
05/23 01:00      0.12      6.33      ----      4943     12.83
05/23 02:00      0.00      6.27      ----      4863     12.83
05/23 03:00      0.00      6.15      ----      4702     12.83
05/23 04:00      0.00      6.08      ----      4608     12.77
05/23 05:00      0.02      5.98      ----      4474     12.77
05/23 06:00      0.01      5.98      ----      4474     12.77
05/23 07:00      0.02      6.21      ----      4782     12.77
05/23 08:00      0.00      6.18      ----      4742     12.71
05/23 09:00      0.00      6.10      ----      4635     12.71
05/23 10:00      0.01      6.08      ----      4608     12.71
05/23 11:00      0.00      5.99      ----      4487     12.71
05/23 12:00      0.00      6.01      ----      4514     12.77
05/23 13:00      0.00      5.96      ----      4447     13.07
05/23 14:00      0.00      5.91      ----      4380     13.24
05/23 15:00      0.00      5.90      ----      4367     13.18
05/23 16:00      0.00      5.87      ----      4326     13.30
05/23 17:00      0.00      5.81      ----      4246     13.30
05/23 18:00      0.00      5.85      ----      4300     13.24
05/23 19:00      0.00      5.77      ----      4193     13.07
05/23 20:00      0.00      5.75      ----      4166     13.12
05/23 21:00      0.00      5.70      ----      4099     13.00
05/23 22:00      0.00      5.71      ----      4112     12.95
05/23 23:00      0.00      5.67      ----      4059     12.89